sensor_id;sensor_type;location;lat;lon;timestamp;temperature;humidity
9762;DHT22;4920;49.594;11.022;2023-11-21T00:00:15;8.00;99.90
9762;DHT22;4920;49.594;11.022;2023-11-21T00:02:44;7.90;99.90
9762;DHT22;4920;49.594;11.022;2023-11-21T00:05:14;7.90;99.90
9762;DHT22;4920;49.594;11.022;2023-11-21T00:07:45;8.00;99.90
9762;DHT22;4920;49.594;11.022;2023-11-21T00:10:14;8.00;99.90
9762;DHT22;4920;49.594;11.022;2023-11-21T00:12:43;7.90;99.90
9762;DHT22;4920;49.594;11.022;2023-11-21T00:15:15;8.00;99.90
9762;DHT22;4920;49.594;11.022;2023-11-21T00:17:45;8.00;99.90
9762;DHT22;4920;49.594;11.022;2023-11-21T00:20:14;7.90;99.90
9762;DHT22;4920;49.594;11.022;2023-11-21T00:22:45;7.90;99.90
9762;DHT22;4920;49.594;11.022;2023-11-21T00:25:14;7.90;99.90
9762;DHT22;4920;49.594;11.022;2023-11-21T00:27:44;7.90;99.90
9762;DHT22;4920;49.594;11.022;2023-11-21T00:30:14;7.90;99.90
9762;DHT22;4920;49.594;11.022;2023-11-21T00:32:43;7.80;99.90
9762;DHT22;4920;49.594;11.022;2023-11-21T00:35:12;7.80;99.90
9762;DHT22;4920;49.594;11.022;2023-11-21T00:37:41;7.80;99.90
9762;DHT22;4920;49.594;11.022;2023-11-21T00:40:12;7.80;99.90
9762;DHT22;4920;49.594;11.022;2023-11-21T00:42:42;7.70;99.90
9762;DHT22;4920;49.594;11.022;2023-11-21T00:45:12;7.80;99.90
9762;DHT22;4920;49.594;11.022;2023-11-21T00:47:40;7.70;99.90
9762;DHT22;4920;49.594;11.022;2023-11-21T00:50:10;7.80;99.90
9762;DHT22;4920;49.594;11.022;2023-11-21T00:52:38;7.80;99.90
9762;DHT22;4920;49.594;11.022;2023-11-21T00:55:08;7.80;99.90
9762;DHT22;4920;49.594;11.022;2023-11-21T00:57:39;7.80;99.90
9762;DHT22;4920;49.594;11.022;2023-11-21T01:00:09;7.80;99.90
9762;DHT22;4920;49.594;11.022;2023-11-21T01:02:41;7.80;99.90
9762;DHT22;4920;49.594;11.022;2023-11-21T01:05:10;7.80;99.90
9762;DHT22;4920;49.594;11.022;2023-11-21T01:07:40;7.80;99.90
9762;DHT22;4920;49.594;11.022;2023-11-21T01:10:09;7.80;99.90
9762;DHT22;4920;49.594;11.022;2023-11-21T01:12:40;7.80;99.90
9762;DHT22;4920;49.594;11.022;2023-11-21T01:15:09;7.80;99.90
9762;DHT22;4920;49.594;11.022;2023-11-21T01:17:39;7.80;99.90
9762;DHT22;4920;49.594;11.022;2023-11-21T01:20:09;7.80;99.90
9762;DHT22;4920;49.594;11.022;2023-11-21T01:22:41;7.80;99.90
9762;DHT22;4920;49.594;11.022;2023-11-21T01:25:10;7.90;99.90
9762;DHT22;4920;49.594;11.022;2023-11-21T01:27:43;7.80;99.90
9762;DHT22;4920;49.594;11.022;2023-11-21T01:30:13;7.80;99.90
9762;DHT22;4920;49.594;11.022;2023-11-21T01:32:43;7.80;99.90
9762;DHT22;4920;49.594;11.022;2023-11-21T01:35:12;7.80;99.90
9762;DHT22;4920;49.594;11.022;2023-11-21T01:37:41;7.80;99.90
9762;DHT22;4920;49.594;11.022;2023-11-21T01:40:10;7.90;99.90
9762;DHT22;4920;49.594;11.022;2023-11-21T01:42:43;7.90;99.90
9762;DHT22;4920;49.594;11.022;2023-11-21T01:45:14;7.80;99.90
9762;DHT22;4920;49.594;11.022;2023-11-21T01:47:44;7.80;99.90
9762;DHT22;4920;49.594;11.022;2023-11-21T01:50:16;7.90;99.90
9762;DHT22;4920;49.594;11.022;2023-11-21T01:52:46;7.80;99.90
9762;DHT22;4920;49.594;11.022;2023-11-21T01:55:17;7.90;99.90
9762;DHT22;4920;49.594;11.022;2023-11-21T01:57:54;7.80;99.90
9762;DHT22;4920;49.594;11.022;2023-11-21T02:00:24;7.80;99.90
9762;DHT22;4920;49.594;11.022;2023-11-21T02:02:56;7.80;99.90
9762;DHT22;4920;49.594;11.022;2023-11-21T02:05:27;7.70;99.90
9762;DHT22;4920;49.594;11.022;2023-11-21T02:07:58;7.70;99.90
9762;DHT22;4920;49.594;11.022;2023-11-21T02:10:28;7.70;99.90
9762;DHT22;4920;49.594;11.022;2023-11-21T02:13:00;7.70;99.90
9762;DHT22;4920;49.594;11.022;2023-11-21T02:15:30;7.70;99.90
9762;DHT22;4920;49.594;11.022;2023-11-21T02:17:59;7.70;99.90
9762;DHT22;4920;49.594;11.022;2023-11-21T02:20:30;7.70;99.90
9762;DHT22;4920;49.594;11.022;2023-11-21T02:23:05;7.70;99.90
9762;DHT22;4920;49.594;11.022;2023-11-21T02:25:34;7.70;99.90
9762;DHT22;4920;49.594;11.022;2023-11-21T02:28:05;7.70;99.90
9762;DHT22;4920;49.594;11.022;2023-11-21T02:30:35;7.80;99.90
9762;DHT22;4920;49.594;11.022;2023-11-21T02:33:04;7.80;99.90
9762;DHT22;4920;49.594;11.022;2023-11-21T02:35:34;7.80;99.90
9762;DHT22;4920;49.594;11.022;2023-11-21T02:38:04;7.80;99.90
9762;DHT22;4920;49.594;11.022;2023-11-21T02:40:33;7.80;99.90
9762;DHT22;4920;49.594;11.022;2023-11-21T02:43:02;7.80;99.90
9762;DHT22;4920;49.594;11.022;2023-11-21T02:45:33;7.80;99.90
9762;DHT22;4920;49.594;11.022;2023-11-21T02:48:02;7.80;99.90
9762;DHT22;4920;49.594;11.022;2023-11-21T02:50:32;7.80;99.90
9762;DHT22;4920;49.594;11.022;2023-11-21T02:53:02;7.80;99.90
9762;DHT22;4920;49.594;11.022;2023-11-21T02:55:34;7.80;99.90
9762;DHT22;4920;49.594;11.022;2023-11-21T02:58:03;7.80;99.90
9762;DHT22;4920;49.594;11.022;2023-11-21T03:00:33;7.80;99.90
9762;DHT22;4920;49.594;11.022;2023-11-21T03:03:02;7.90;99.90
9762;DHT22;4920;49.594;11.022;2023-11-21T03:05:31;7.80;99.90
9762;DHT22;4920;49.594;11.022;2023-11-21T03:08:03;7.90;99.90
9762;DHT22;4920;49.594;11.022;2023-11-21T03:10:34;7.90;99.90
9762;DHT22;4920;49.594;11.022;2023-11-21T03:13:03;7.90;99.90
9762;DHT22;4920;49.594;11.022;2023-11-21T03:15:31;7.90;99.90
9762;DHT22;4920;49.594;11.022;2023-11-21T03:18:02;7.90;99.90
9762;DHT22;4920;49.594;11.022;2023-11-21T03:20:32;8.00;99.90
9762;DHT22;4920;49.594;11.022;2023-11-21T03:23:02;7.90;99.90
9762;DHT22;4920;49.594;11.022;2023-11-21T03:25:34;7.90;99.90
9762;DHT22;4920;49.594;11.022;2023-11-21T03:28:03;7.90;99.90
9762;DHT22;4920;49.594;11.022;2023-11-21T03:30:32;8.00;99.90
9762;DHT22;4920;49.594;11.022;2023-11-21T03:33:01;8.00;99.90
9762;DHT22;4920;49.594;11.022;2023-11-21T03:35:30;7.90;99.90
9762;DHT22;4920;49.594;11.022;2023-11-21T03:37:58;7.90;99.90
9762;DHT22;4920;49.594;11.022;2023-11-21T03:40:29;8.00;99.90
9762;DHT22;4920;49.594;11.022;2023-11-21T03:43:00;8.00;99.90
9762;DHT22;4920;49.594;11.022;2023-11-21T03:45:30;8.00;99.90
9762;DHT22;4920;49.594;11.022;2023-11-21T03:47:58;8.00;99.90
9762;DHT22;4920;49.594;11.022;2023-11-21T03:50:29;8.00;99.90
9762;DHT22;4920;49.594;11.022;2023-11-21T03:52:58;8.00;99.90
9762;DHT22;4920;49.594;11.022;2023-11-21T03:55:29;8.00;99.90
9762;DHT22;4920;49.594;11.022;2023-11-21T03:58:00;8.00;99.90
9762;DHT22;4920;49.594;11.022;2023-11-21T04:00:29;8.00;99.90
9762;DHT22;4920;49.594;11.022;2023-11-21T04:02:59;7.90;99.90
9762;DHT22;4920;49.594;11.022;2023-11-21T04:05:28;7.90;99.90
9762;DHT22;4920;49.594;11.022;2023-11-21T04:07:57;7.90;99.90
9762;DHT22;4920;49.594;11.022;2023-11-21T04:10:26;7.90;99.90
9762;DHT22;4920;49.594;11.022;2023-11-21T04:12:55;7.90;99.90
9762;DHT22;4920;49.594;11.022;2023-11-21T04:15:25;7.90;99.90
9762;DHT22;4920;49.594;11.022;2023-11-21T04:17:54;8.00;99.90
9762;DHT22;4920;49.594;11.022;2023-11-21T04:20:24;7.90;99.90
9762;DHT22;4920;49.594;11.022;2023-11-21T04:22:53;8.00;99.90
9762;DHT22;4920;49.594;11.022;2023-11-21T04:25:22;7.90;99.90
9762;DHT22;4920;49.594;11.022;2023-11-21T04:27:51;8.00;99.90
9762;DHT22;4920;49.594;11.022;2023-11-21T04:30:21;7.90;99.90
9762;DHT22;4920;49.594;11.022;2023-11-21T04:32:52;8.00;99.90
9762;DHT22;4920;49.594;11.022;2023-11-21T04:35:20;8.00;99.90
9762;DHT22;4920;49.594;11.022;2023-11-21T04:37:49;8.00;99.90
9762;DHT22;4920;49.594;11.022;2023-11-21T04:40:18;8.00;99.90
9762;DHT22;4920;49.594;11.022;2023-11-21T04:42:48;8.00;99.90
9762;DHT22;4920;49.594;11.022;2023-11-21T04:45:17;8.00;99.90
9762;DHT22;4920;49.594;11.022;2023-11-21T04:47:46;8.10;99.90
9762;DHT22;4920;49.594;11.022;2023-11-21T04:50:17;8.10;99.90
9762;DHT22;4920;49.594;11.022;2023-11-21T04:52:46;8.10;99.90
9762;DHT22;4920;49.594;11.022;2023-11-21T04:55:15;8.10;99.90
9762;DHT22;4920;49.594;11.022;2023-11-21T04:57:48;8.10;99.90
9762;DHT22;4920;49.594;11.022;2023-11-21T05:00:17;8.10;99.90
9762;DHT22;4920;49.594;11.022;2023-11-21T05:02:47;8.10;99.90
9762;DHT22;4920;49.594;11.022;2023-11-21T05:05:18;8.10;99.90
9762;DHT22;4920;49.594;11.022;2023-11-21T05:07:48;8.10;99.90
9762;DHT22;4920;49.594;11.022;2023-11-21T05:10:17;8.10;99.90
9762;DHT22;4920;49.594;11.022;2023-11-21T05:12:46;8.10;99.90
9762;DHT22;4920;49.594;11.022;2023-11-21T05:15:17;8.10;99.90
9762;DHT22;4920;49.594;11.022;2023-11-21T05:17:46;8.10;99.90
9762;DHT22;4920;49.594;11.022;2023-11-21T05:20:19;8.10;99.90
9762;DHT22;4920;49.594;11.022;2023-11-21T05:22:49;8.10;99.90
9762;DHT22;4920;49.594;11.022;2023-11-21T05:25:18;8.10;99.90
9762;DHT22;4920;49.594;11.022;2023-11-21T05:27:47;8.10;99.90
9762;DHT22;4920;49.594;11.022;2023-11-21T05:30:16;8.20;99.90
9762;DHT22;4920;49.594;11.022;2023-11-21T05:32:45;8.10;99.90
9762;DHT22;4920;49.594;11.022;2023-11-21T05:35:15;8.20;99.90
9762;DHT22;4920;49.594;11.022;2023-11-21T05:37:46;8.10;99.90
9762;DHT22;4920;49.594;11.022;2023-11-21T05:40:15;8.10;99.90
9762;DHT22;4920;49.594;11.022;2023-11-21T05:42:45;8.10;99.90
9762;DHT22;4920;49.594;11.022;2023-11-21T05:45:14;8.20;99.90
9762;DHT22;4920;49.594;11.022;2023-11-21T05:47:44;8.20;99.90
9762;DHT22;4920;49.594;11.022;2023-11-21T05:50:15;8.10;99.90
9762;DHT22;4920;49.594;11.022;2023-11-21T05:52:47;8.20;99.90
9762;DHT22;4920;49.594;11.022;2023-11-21T05:55:17;8.10;99.90
9762;DHT22;4920;49.594;11.022;2023-11-21T05:57:48;8.10;99.90
9762;DHT22;4920;49.594;11.022;2023-11-21T06:00:17;8.20;99.90
9762;DHT22;4920;49.594;11.022;2023-11-21T06:02:49;8.20;99.90
9762;DHT22;4920;49.594;11.022;2023-11-21T06:05:22;8.10;99.90
9762;DHT22;4920;49.594;11.022;2023-11-21T06:07:55;8.20;99.90
9762;DHT22;4920;49.594;11.022;2023-11-21T06:10:27;8.20;99.90
9762;DHT22;4920;49.594;11.022;2023-11-21T06:12:56;8.20;99.90
9762;DHT22;4920;49.594;11.022;2023-11-21T06:15:30;8.20;99.90
9762;DHT22;4920;49.594;11.022;2023-11-21T06:17:59;8.20;99.90
9762;DHT22;4920;49.594;11.022;2023-11-21T06:20:28;8.20;99.90
9762;DHT22;4920;49.594;11.022;2023-11-21T06:22:58;8.20;99.90
9762;DHT22;4920;49.594;11.022;2023-11-21T06:25:31;8.20;99.90
9762;DHT22;4920;49.594;11.022;2023-11-21T06:28:03;8.20;99.90
9762;DHT22;4920;49.594;11.022;2023-11-21T06:30:32;8.20;99.90
9762;DHT22;4920;49.594;11.022;2023-11-21T06:33:01;8.20;99.90
9762;DHT22;4920;49.594;11.022;2023-11-21T06:35:30;8.20;99.90
9762;DHT22;4920;49.594;11.022;2023-11-21T06:38:03;8.20;99.90
9762;DHT22;4920;49.594;11.022;2023-11-21T06:40:32;8.20;99.90
9762;DHT22;4920;49.594;11.022;2023-11-21T06:43:01;8.20;99.90
9762;DHT22;4920;49.594;11.022;2023-11-21T06:45:32;8.20;99.90
9762;DHT22;4920;49.594;11.022;2023-11-21T06:48:01;8.20;99.90
9762;DHT22;4920;49.594;11.022;2023-11-21T06:50:30;8.20;99.90
9762;DHT22;4920;49.594;11.022;2023-11-21T06:52:59;8.20;99.90
9762;DHT22;4920;49.594;11.022;2023-11-21T06:55:33;8.20;99.90
9762;DHT22;4920;49.594;11.022;2023-11-21T06:58:02;8.20;99.90
9762;DHT22;4920;49.594;11.022;2023-11-21T07:00:32;8.20;99.90
9762;DHT22;4920;49.594;11.022;2023-11-21T07:03:02;8.20;99.90
9762;DHT22;4920;49.594;11.022;2023-11-21T07:05:31;8.20;99.90
9762;DHT22;4920;49.594;11.022;2023-11-21T07:08:00;8.10;99.90
9762;DHT22;4920;49.594;11.022;2023-11-21T07:10:33;8.10;99.90
9762;DHT22;4920;49.594;11.022;2023-11-21T07:13:02;8.20;99.90
9762;DHT22;4920;49.594;11.022;2023-11-21T07:15:31;8.20;99.90
9762;DHT22;4920;49.594;11.022;2023-11-21T07:18:01;8.20;99.90
9762;DHT22;4920;49.594;11.022;2023-11-21T07:20:30;8.30;99.90
9762;DHT22;4920;49.594;11.022;2023-11-21T07:22:59;8.30;99.90
9762;DHT22;4920;49.594;11.022;2023-11-21T07:25:28;8.30;99.90
9762;DHT22;4920;49.594;11.022;2023-11-21T07:27:59;8.40;99.90
9762;DHT22;4920;49.594;11.022;2023-11-21T07:30:28;8.40;99.90
9762;DHT22;4920;49.594;11.022;2023-11-21T07:32:57;8.50;99.90
9762;DHT22;4920;49.594;11.022;2023-11-21T07:35:26;8.60;99.90
9762;DHT22;4920;49.594;11.022;2023-11-21T07:37:55;8.70;99.90
9762;DHT22;4920;49.594;11.022;2023-11-21T07:40:24;8.70;99.90
9762;DHT22;4920;49.594;11.022;2023-11-21T07:42:59;8.80;99.90
9762;DHT22;4920;49.594;11.022;2023-11-21T07:45:28;8.90;99.90
9762;DHT22;4920;49.594;11.022;2023-11-21T07:47:57;9.00;99.90
9762;DHT22;4920;49.594;11.022;2023-11-21T07:50:28;9.10;99.90
9762;DHT22;4920;49.594;11.022;2023-11-21T07:52:57;9.10;99.90
9762;DHT22;4920;49.594;11.022;2023-11-21T07:55:27;9.20;99.90
9762;DHT22;4920;49.594;11.022;2023-11-21T07:58:01;9.30;99.90
9762;DHT22;4920;49.594;11.022;2023-11-21T08:00:31;9.30;99.90
9762;DHT22;4920;49.594;11.022;2023-11-21T08:03:01;9.30;99.90
9762;DHT22;4920;49.594;11.022;2023-11-21T08:05:30;9.40;99.90
9762;DHT22;4920;49.594;11.022;2023-11-21T08:08:04;9.40;99.90
9762;DHT22;4920;49.594;11.022;2023-11-21T08:10:33;9.50;99.90
9762;DHT22;4920;49.594;11.022;2023-11-21T08:13:04;9.50;99.90
9762;DHT22;4920;49.594;11.022;2023-11-21T08:15:33;9.50;99.90
9762;DHT22;4920;49.594;11.022;2023-11-21T08:18:04;9.50;99.90
9762;DHT22;4920;49.594;11.022;2023-11-21T08:20:35;9.60;99.90
9762;DHT22;4920;49.594;11.022;2023-11-21T08:23:07;9.60;99.90
9762;DHT22;4920;49.594;11.022;2023-11-21T08:25:36;9.60;99.90
9762;DHT22;4920;49.594;11.022;2023-11-21T08:28:07;9.60;99.90
9762;DHT22;4920;49.594;11.022;2023-11-21T08:30:37;9.70;99.90
9762;DHT22;4920;49.594;11.022;2023-11-21T08:33:08;9.70;99.90
9762;DHT22;4920;49.594;11.022;2023-11-21T08:35:37;9.70;99.90
9762;DHT22;4920;49.594;11.022;2023-11-21T08:38:07;9.70;99.90
9762;DHT22;4920;49.594;11.022;2023-11-21T08:40:38;9.80;99.90
9762;DHT22;4920;49.594;11.022;2023-11-21T08:43:08;9.90;99.90
9762;DHT22;4920;49.594;11.022;2023-11-21T08:45:39;10.00;99.90
9762;DHT22;4920;49.594;11.022;2023-11-21T08:48:09;10.10;99.90
9762;DHT22;4920;49.594;11.022;2023-11-21T08:50:39;10.10;99.90
9762;DHT22;4920;49.594;11.022;2023-11-21T08:53:08;10.20;99.90
9762;DHT22;4920;49.594;11.022;2023-11-21T08:55:39;10.20;99.90
9762;DHT22;4920;49.594;11.022;2023-11-21T08:58:09;10.20;99.90
9762;DHT22;4920;49.594;11.022;2023-11-21T09:00:40;10.30;99.90
9762;DHT22;4920;49.594;11.022;2023-11-21T09:03:09;10.40;99.90
9762;DHT22;4920;49.594;11.022;2023-11-21T09:05:39;10.40;99.90
9762;DHT22;4920;49.594;11.022;2023-11-21T09:08:08;10.50;99.90
9762;DHT22;4920;49.594;11.022;2023-11-21T09:10:37;10.60;99.90
9762;DHT22;4920;49.594;11.022;2023-11-21T09:13:08;10.70;99.90
9762;DHT22;4920;49.594;11.022;2023-11-21T09:15:38;10.70;99.90
9762;DHT22;4920;49.594;11.022;2023-11-21T09:18:07;10.80;99.90
9762;DHT22;4920;49.594;11.022;2023-11-21T09:20:36;10.90;99.90
9762;DHT22;4920;49.594;11.022;2023-11-21T09:23:05;11.00;99.90
9762;DHT22;4920;49.594;11.022;2023-11-21T09:25:34;11.10;99.90
9762;DHT22;4920;49.594;11.022;2023-11-21T09:28:05;11.10;99.90
9762;DHT22;4920;49.594;11.022;2023-11-21T09:30:37;11.10;99.90
9762;DHT22;4920;49.594;11.022;2023-11-21T09:33:06;11.00;99.90
9762;DHT22;4920;49.594;11.022;2023-11-21T09:35:38;10.90;99.90
9762;DHT22;4920;49.594;11.022;2023-11-21T09:38:07;10.90;99.90
9762;DHT22;4920;49.594;11.022;2023-11-21T09:40:38;10.90;99.90
9762;DHT22;4920;49.594;11.022;2023-11-21T09:43:16;11.00;99.90
9762;DHT22;4920;49.594;11.022;2023-11-21T09:45:48;11.20;99.90
9762;DHT22;4920;49.594;11.022;2023-11-21T09:48:20;11.30;99.90
9762;DHT22;4920;49.594;11.022;2023-11-21T09:50:50;11.30;99.90
9762;DHT22;4920;49.594;11.022;2023-11-21T09:53:21;11.40;99.90
9762;DHT22;4920;49.594;11.022;2023-11-21T09:55:53;11.40;99.90
9762;DHT22;4920;49.594;11.022;2023-11-21T09:58:22;11.50;99.90
9762;DHT22;4920;49.594;11.022;2023-11-21T10:00:55;11.50;99.90
9762;DHT22;4920;49.594;11.022;2023-11-21T10:03:26;11.40;99.90
9762;DHT22;4920;49.594;11.022;2023-11-21T10:05:56;11.30;99.90
9762;DHT22;4920;49.594;11.022;2023-11-21T10:08:28;11.20;99.90
9762;DHT22;4920;49.594;11.022;2023-11-21T10:11:17;11.20;99.90
9762;DHT22;4920;49.594;11.022;2023-11-21T10:13:48;11.20;99.90
9762;DHT22;4920;49.594;11.022;2023-11-21T10:16:19;11.10;99.90
9762;DHT22;4920;49.594;11.022;2023-11-21T10:18:52;11.10;99.90
9762;DHT22;4920;49.594;11.022;2023-11-21T10:21:38;11.00;99.90
9762;DHT22;4920;49.594;11.022;2023-11-21T10:24:07;11.10;99.90
9762;DHT22;4920;49.594;11.022;2023-11-21T10:26:36;11.10;99.90
9762;DHT22;4920;49.594;11.022;2023-11-21T10:29:19;11.00;99.90
9762;DHT22;4920;49.594;11.022;2023-11-21T10:31:51;11.10;99.90
9762;DHT22;4920;49.594;11.022;2023-11-21T10:34:22;11.00;99.90
9762;DHT22;4920;49.594;11.022;2023-11-21T10:36:51;11.10;99.90
9762;DHT22;4920;49.594;11.022;2023-11-21T10:39:20;11.20;99.90
9762;DHT22;4920;49.594;11.022;2023-11-21T10:41:51;11.40;99.90
9762;DHT22;4920;49.594;11.022;2023-11-21T10:44:20;11.50;99.90
9762;DHT22;4920;49.594;11.022;2023-11-21T10:46:54;11.80;99.90
9762;DHT22;4920;49.594;11.022;2023-11-21T10:49:25;11.90;99.90
9762;DHT22;4920;49.594;11.022;2023-11-21T10:51:55;11.90;99.90
9762;DHT22;4920;49.594;11.022;2023-11-21T10:54:24;11.90;99.90
9762;DHT22;4920;49.594;11.022;2023-11-21T10:56:57;11.90;99.90
9762;DHT22;4920;49.594;11.022;2023-11-21T10:59:29;11.90;99.90
9762;DHT22;4920;49.594;11.022;2023-11-21T11:02:02;11.90;99.90
9762;DHT22;4920;49.594;11.022;2023-11-21T11:04:35;11.70;99.90
9762;DHT22;4920;49.594;11.022;2023-11-21T11:07:07;11.70;99.90
9762;DHT22;4920;49.594;11.022;2023-11-21T11:09:39;11.70;99.90
9762;DHT22;4920;49.594;11.022;2023-11-21T11:12:08;11.70;99.90
9762;DHT22;4920;49.594;11.022;2023-11-21T11:14:40;11.80;99.90
9762;DHT22;4920;49.594;11.022;2023-11-21T11:17:13;11.80;99.90
9762;DHT22;4920;49.594;11.022;2023-11-21T11:19:43;11.80;99.90
9762;DHT22;4920;49.594;11.022;2023-11-21T11:22:23;11.90;99.90
9762;DHT22;4920;49.594;11.022;2023-11-21T11:25:10;11.80;99.90
9762;DHT22;4920;49.594;11.022;2023-11-21T11:27:48;11.70;99.90
9762;DHT22;4920;49.594;11.022;2023-11-21T11:30:38;11.50;99.90
9762;DHT22;4920;49.594;11.022;2023-11-21T11:33:19;11.40;99.90
9762;DHT22;4920;49.594;11.022;2023-11-21T11:35:59;11.40;99.90
9762;DHT22;4920;49.594;11.022;2023-11-21T11:38:31;11.50;99.90
9762;DHT22;4920;49.594;11.022;2023-11-21T11:41:02;11.60;99.90
9762;DHT22;4920;49.594;11.022;2023-11-21T11:43:32;11.60;99.90
9762;DHT22;4920;49.594;11.022;2023-11-21T11:46:12;11.60;99.90
9762;DHT22;4920;49.594;11.022;2023-11-21T11:48:44;11.70;99.90
9762;DHT22;4920;49.594;11.022;2023-11-21T11:51:14;11.70;99.90
9762;DHT22;4920;49.594;11.022;2023-11-21T11:53:47;11.60;99.90
9762;DHT22;4920;49.594;11.022;2023-11-21T11:56:24;11.70;99.90
9762;DHT22;4920;49.594;11.022;2023-11-21T11:58:55;11.70;99.90
9762;DHT22;4920;49.594;11.022;2023-11-21T12:01:25;11.70;99.90
9762;DHT22;4920;49.594;11.022;2023-11-21T12:04:26;11.70;99.90
9762;DHT22;4920;49.594;11.022;2023-11-21T12:07:02;11.70;99.90
9762;DHT22;4920;49.594;11.022;2023-11-21T12:09:31;11.80;99.90
9762;DHT22;4920;49.594;11.022;2023-11-21T12:12:02;11.80;99.90
9762;DHT22;4920;49.594;11.022;2023-11-21T12:14:31;11.80;99.90
9762;DHT22;4920;49.594;11.022;2023-11-21T12:17:00;11.80;99.90
9762;DHT22;4920;49.594;11.022;2023-11-21T12:19:31;11.90;99.90
9762;DHT22;4920;49.594;11.022;2023-11-21T12:22:00;11.90;99.90
9762;DHT22;4920;49.594;11.022;2023-11-21T12:24:29;11.90;99.90
9762;DHT22;4920;49.594;11.022;2023-11-21T12:26:58;11.90;99.90
9762;DHT22;4920;49.594;11.022;2023-11-21T12:29:26;11.90;99.90
9762;DHT22;4920;49.594;11.022;2023-11-21T12:31:57;11.90;99.90
9762;DHT22;4920;49.594;11.022;2023-11-21T12:34:27;12.00;99.90
9762;DHT22;4920;49.594;11.022;2023-11-21T12:37:11;12.00;99.90
9762;DHT22;4920;49.594;11.022;2023-11-21T12:39:40;11.90;99.90
9762;DHT22;4920;49.594;11.022;2023-11-21T12:42:09;11.90;99.90
9762;DHT22;4920;49.594;11.022;2023-11-21T12:44:39;11.90;99.90
9762;DHT22;4920;49.594;11.022;2023-11-21T12:47:09;11.80;99.90
9762;DHT22;4920;49.594;11.022;2023-11-21T12:49:42;11.80;99.90
9762;DHT22;4920;49.594;11.022;2023-11-21T12:52:13;11.70;99.90
9762;DHT22;4920;49.594;11.022;2023-11-21T12:54:42;11.60;99.90
9762;DHT22;4920;49.594;11.022;2023-11-21T12:57:16;11.50;99.90
9762;DHT22;4920;49.594;11.022;2023-11-21T12:59:45;11.50;99.90
9762;DHT22;4920;49.594;11.022;2023-11-21T13:02:14;11.50;99.90
9762;DHT22;4920;49.594;11.022;2023-11-21T13:04:43;11.60;99.90
9762;DHT22;4920;49.594;11.022;2023-11-21T13:07:21;11.80;99.90
9762;DHT22;4920;49.594;11.022;2023-11-21T13:09:52;12.00;99.90
9762;DHT22;4920;49.594;11.022;2023-11-21T13:12:24;12.30;99.90
9762;DHT22;4920;49.594;11.022;2023-11-21T13:14:53;12.40;99.90
9762;DHT22;4920;49.594;11.022;2023-11-21T13:17:22;12.70;99.90
9762;DHT22;4920;49.594;11.022;2023-11-21T13:19:52;12.90;99.90
9762;DHT22;4920;49.594;11.022;2023-11-21T13:22:23;13.10;99.90
9762;DHT22;4920;49.594;11.022;2023-11-21T13:24:52;13.10;99.90
9762;DHT22;4920;49.594;11.022;2023-11-21T13:27:21;13.10;99.90
9762;DHT22;4920;49.594;11.022;2023-11-21T13:29:50;13.20;99.90
9762;DHT22;4920;49.594;11.022;2023-11-21T13:32:19;13.40;99.90
9762;DHT22;4920;49.594;11.022;2023-11-21T13:34:49;13.60;99.90
9762;DHT22;4920;49.594;11.022;2023-11-21T13:37:23;13.70;99.90
9762;DHT22;4920;49.594;11.022;2023-11-21T13:39:55;13.80;99.90
9762;DHT22;4920;49.594;11.022;2023-11-21T13:42:24;13.80;99.90
9762;DHT22;4920;49.594;11.022;2023-11-21T13:44:56;13.90;99.90
9762;DHT22;4920;49.594;11.022;2023-11-21T13:47:25;13.90;99.90
9762;DHT22;4920;49.594;11.022;2023-11-21T13:49:57;13.80;99.90
9762;DHT22;4920;49.594;11.022;2023-11-21T13:52:29;13.60;99.90
9762;DHT22;4920;49.594;11.022;2023-11-21T13:55:01;13.30;99.90
9762;DHT22;4920;49.594;11.022;2023-11-21T13:57:33;13.00;99.90
9762;DHT22;4920;49.594;11.022;2023-11-21T14:00:03;12.80;99.90
9762;DHT22;4920;49.594;11.022;2023-11-21T14:02:38;12.60;99.90
9762;DHT22;4920;49.594;11.022;2023-11-21T14:05:10;12.40;99.90
9762;DHT22;4920;49.594;11.022;2023-11-21T14:07:42;12.30;99.90
9762;DHT22;4920;49.594;11.022;2023-11-21T14:10:15;12.00;99.90
9762;DHT22;4920;49.594;11.022;2023-11-21T14:12:49;11.90;99.90
9762;DHT22;4920;49.594;11.022;2023-11-21T14:15:18;11.80;99.90
9762;DHT22;4920;49.594;11.022;2023-11-21T14:17:46;11.60;99.90
9762;DHT22;4920;49.594;11.022;2023-11-21T14:20:15;11.50;99.90
9762;DHT22;4920;49.594;11.022;2023-11-21T14:22:49;11.50;99.90
9762;DHT22;4920;49.594;11.022;2023-11-21T14:25:19;11.50;99.90
9762;DHT22;4920;49.594;11.022;2023-11-21T14:27:50;11.50;99.90
9762;DHT22;4920;49.594;11.022;2023-11-21T14:30:19;11.40;99.90
9762;DHT22;4920;49.594;11.022;2023-11-21T14:32:49;11.30;99.90
9762;DHT22;4920;49.594;11.022;2023-11-21T14:35:18;11.20;99.90
9762;DHT22;4920;49.594;11.022;2023-11-21T14:37:49;11.20;99.90
9762;DHT22;4920;49.594;11.022;2023-11-21T14:40:18;11.20;99.90
9762;DHT22;4920;49.594;11.022;2023-11-21T14:42:51;11.10;99.90
9762;DHT22;4920;49.594;11.022;2023-11-21T14:45:23;11.10;99.90
9762;DHT22;4920;49.594;11.022;2023-11-21T14:47:53;11.10;99.90
9762;DHT22;4920;49.594;11.022;2023-11-21T14:50:33;11.00;99.90
9762;DHT22;4920;49.594;11.022;2023-11-21T14:53:17;10.90;99.90
9762;DHT22;4920;49.594;11.022;2023-11-21T14:56:06;10.80;99.90
9762;DHT22;4920;49.594;11.022;2023-11-21T14:58:35;10.70;99.90
9762;DHT22;4920;49.594;11.022;2023-11-21T15:01:05;10.60;99.90
9762;DHT22;4920;49.594;11.022;2023-11-21T15:03:35;10.50;99.90
9762;DHT22;4920;49.594;11.022;2023-11-21T15:06:17;10.40;99.90
9762;DHT22;4920;49.594;11.022;2023-11-21T15:08:56;10.30;99.90
9762;DHT22;4920;49.594;11.022;2023-11-21T15:11:43;10.20;99.90
9762;DHT22;4920;49.594;11.022;2023-11-21T15:14:13;10.10;99.90
9762;DHT22;4920;49.594;11.022;2023-11-21T15:16:47;10.00;99.90
9762;DHT22;4920;49.594;11.022;2023-11-21T15:19:20;9.90;99.90
9762;DHT22;4920;49.594;11.022;2023-11-21T15:21:54;9.80;99.90
9762;DHT22;4920;49.594;11.022;2023-11-21T15:24:24;9.70;99.90
9762;DHT22;4920;49.594;11.022;2023-11-21T15:26:53;9.70;99.90
9762;DHT22;4920;49.594;11.022;2023-11-21T15:29:22;9.60;99.90
9762;DHT22;4920;49.594;11.022;2023-11-21T15:31:51;9.70;99.90
9762;DHT22;4920;49.594;11.022;2023-11-21T15:34:23;9.60;99.90
9762;DHT22;4920;49.594;11.022;2023-11-21T15:36:53;9.60;99.90
9762;DHT22;4920;49.594;11.022;2023-11-21T15:39:24;9.60;99.90
9762;DHT22;4920;49.594;11.022;2023-11-21T15:41:57;9.60;99.90
9762;DHT22;4920;49.594;11.022;2023-11-21T15:44:26;9.60;99.90
9762;DHT22;4920;49.594;11.022;2023-11-21T15:46:55;9.60;99.90
9762;DHT22;4920;49.594;11.022;2023-11-21T15:49:24;9.60;99.90
9762;DHT22;4920;49.594;11.022;2023-11-21T15:51:54;9.60;99.90
9762;DHT22;4920;49.594;11.022;2023-11-21T15:54:29;9.60;99.90
9762;DHT22;4920;49.594;11.022;2023-11-21T15:56:57;9.60;99.90
9762;DHT22;4920;49.594;11.022;2023-11-21T15:59:27;9.60;99.90
9762;DHT22;4920;49.594;11.022;2023-11-21T16:01:59;9.60;99.90
9762;DHT22;4920;49.594;11.022;2023-11-21T16:04:28;9.60;99.90
9762;DHT22;4920;49.594;11.022;2023-11-21T16:06:57;9.60;99.90
9762;DHT22;4920;49.594;11.022;2023-11-21T16:09:29;9.50;99.90
9762;DHT22;4920;49.594;11.022;2023-11-21T16:12:01;9.50;99.90
9762;DHT22;4920;49.594;11.022;2023-11-21T16:14:32;9.50;99.90
9762;DHT22;4920;49.594;11.022;2023-11-21T16:17:06;9.40;99.90